Date,TemperatureHighF,TemperatureAvgF,TemperatureLowF,DewpointHighF,DewpointAvgF,DewpointLowF,HumidityHigh,HumidityAvg,HumidityLow,PressureMaxIn,PressureMinIn,WindSpeedMaxMPH,WindSpeedAvgMPH,GustSpeedMaxMPH,PrecipitationSumIn
2013-1-1,46.9,41.6,35.8,25.4,14.7,8.1,59,35,22,17.72,17.72,5,1,6,0.00
2013-1-2,55.6,45.5,42.1,15.4,10.5,7.0,28,24,18,17.72,17.72,4,1,6,0.00
2013-2-1,66.0,56.1,52.3,27.0,23.1,21.0,31,28,23,17.72,17.72,4,1,4,0.91
2013-2-2,63.9,52.8,47.7,33.8,26.2,19.7,55,36,26,17.72,17.72,4,0,5,0.00
2013-2-3,59.0,48.5,42.4,41.0,32.7,24.8,79,56,28,17.72,17.72,3,0,4,0.00
2013-2-4,58.5,50.1,41.7,35.6,26.5,19.2,60,40,31,17.72,17.72,2,0,3,0.00
2013-2-5,52.2,44.7,39.2,41.0,29.4,16.3,87,58,31,17.72,17.72,6,1,8,0.00
2013-2-6,57.6,45.6,40.3,27.6,21.8,17.5,50,39,28,17.72,17.72,5,1,8,0.00
2013-2-7,49.5,42.5,36.7,42.8,28.8,16.5,89,60,32,17.72,17.72,5,0,8,0.20
2013-2-8,55.8,42.8,36.1,29.2,17.4,7.8,73,39,21,17.72,17.72,7,2,8,0.00
2013-2-9,58.5,46.1,41.9,16.4,10.0,6.7,29,23,17,17.72,17.72,7,2,9,0.00
2013-2-10,64.2,49.8,43.5,21.5,14.2,10.7,28,24,18,17.72,17.72,5,1,10,0.00
2013-2-11,67.5,50.6,45.0,21.2,13.0,7.3,28,22,17,17.72,17.72,5,2,8,0.00
2013-2-12,69.3,49.2,44.1,26.5,19.5,13.8,40,31,17,17.72,17.72,5,0,5,0.00
2013-2-13,70.3,52.6,46.4,29.1,22.2,16.3,41,31,21,17.72,17.72,3,0,5,0.00
2013-2-14,74.3,59.0,54.0,28.3,20.1,16.7,25,22,16,17.72,17.72,5,2,8,0.00
2013-2-15,76.1,58.8,55.6,25.6,19.2,15.2,26,21,15,17.72,17.72,4,1,6,0.00
2013-2-16,75.2,57.9,51.8,27.6,21.4,17.2,27,24,16,17.72,17.72,3,0,5,0.00
2013-2-17,72.7,51.9,46.6,24.8,19.4,15.8,34,28,17,17.72,17.72,4,0,6,0.00
2013-2-18,58.1,44.5,38.3,30.2,21.3,13.7,62,40,28,17.72,17.72,4,0,8,0.00
2013-2-20,63.7,47.8,39.7,22.4,17.6,13.5,42,30,21,17.72,17.72,7,2,9,0.47
2013-2-21,69.3,45.9,36.3,21.9,15.2,10.6,44,30,17,17.72,17.72,8,1,10,0.00
2013-2-22,68.2,50.8,43.9,24.7,18.2,13.5,38,27,17,17.72,17.72,8,1,11,0.00
2013-2-23,60.6,46.8,40.8,30.2,15.4,6.2,56,30,18,17.72,17.72,6,2,9,0.00
2013-2-24,68.0,49.0,42.6,18.5,9.6,4.5,27,20,15,17.72,17.72,7,2,8,0.00
2013-2-25,68.9,48.5,39.9,28.5,21.1,12.8,44,34,21,17.72,17.72,4,0,6,0.00
2013-2-26,68.7,52.4,44.1,22.5,13.6,6.4,38,22,15,17.72,17.72,7,2,8,0.00
2013-3-5,48.6,46.5,44.6,46.4,30.0,23.7,97,55,38,17.72,17.72,9,2,15,0.28
2013-3-6,49.8,43.6,38.8,46.4,31.1,19.8,98,64,36,17.72,17.72,6,1,11,0.35
2013-3-7,49.5,43.9,38.5,26.1,20.9,16.6,59,41,29,17.72,17.72,5,0,7,0.00
2013-3-8,60.6,48.6,41.5,23.6,18.8,14.3,45,31,22,17.72,17.72,6,1,10,0.00
2013-3-9,63.1,53.2,42.1,21.5,18.6,14.5,43,26,16,17.72,17.72,6,2,10,0.00
2013-3-10,66.9,58.5,54.5,23.2,16.1,11.3,26,19,16,17.72,17.72,5,2,7,0.00
2013-3-11,68.0,62.8,58.3,26.1,23.8,20.8,26,23,20,17.72,17.72,3,1,4,0.00
2013-3-19,57.6,48.9,42.6,42.8,31.4,19.7,80,55,25,17.72,17.72,4,0,5,0.08
2013-3-20,54.3,52.8,50.2,50.0,47.7,37.4,86,83,78,17.72,17.72,3,0,5,0.43
2013-3-21,58.6,54.6,50.4,28.6,24.4,19.7,40,31,25,17.72,17.72,4,1,5,0.00
2013-3-22,60.3,55.5,48.7,15.3,12.2,8.3,19,18,17,17.72,17.72,6,3,8,0.00
2013-3-26,64.8,60.2,55.9,33.8,28.0,23.5,38,29,26,17.72,17.72,5,1,7,0.00
2013-3-27,55.9,51.2,47.8,37.4,33.0,31.1,64,50,40,17.72,17.72,3,0,5,0.00
2013-3-30,62.2,59.8,54.1,41.0,37.7,32.7,51,43,38,17.72,17.72,3,0,4,0.00
2013-3-31,57.2,55.1,52.5,48.2,41.6,35.6,78,61,48,17.72,17.72,4,0,6,0.43
2013-4-1,59.4,56.4,53.2,44.6,37.3,32.1,71,49,38,17.72,17.72,3,0,5,0.04
2013-4-2,63.5,62.6,61.2,37.4,34.9,33.8,41,36,33,17.72,17.72,4,0,6,0.00
2013-4-4,54.0,53.2,52.3,53.6,52.1,50.0,97,96,96,17.72,17.72,4,1,6,1.06
2013-4-8,60.8,57.3,54.1,18.7,15.7,11.3,23,19,17,17.72,17.72,8,3,13,0.20
2013-4-11,69.4,62.3,55.2,28.9,26.1,23.5,33,25,20,17.72,17.72,4,0,4,0.00
2013-4-12,68.4,61.5,53.1,27.4,21.5,18.4,36,22,17,17.72,40.00,4,0,6,0.00
2013-4-13,54.3,54.1,54.1,22.6,22.6,21.8,29,29,29,0.00,40.00,0,0,2,0.00
2013-4-15,51.6,47.3,45.1,16.0,14.7,13.8,28,27,24,0.00,40.00,8,4,11,0.00
2013-4-16,46.8,45.8,45.3,13.9,11.7,8.7,27,25,22,0.00,40.00,7,4,9,0.00
2013-4-20,76.5,68.3,61.9,25.9,23.0,19.8,21,18,15,0.00,40.00,4,0,5,0.00
2013-4-21,79.3,69.3,59.4,27.7,22.9,19.2,24,17,15,0.00,40.00,7,1,8,0.00
2013-4-22,82.4,72.0,66.6,28.5,23.5,18.5,17,16,14,0.00,40.00,7,1,10,0.00
2013-4-23,78.3,66.5,57.9,26.8,18.8,14.3,19,16,14,0.00,40.00,8,2,13,0.00
2013-4-24,72.5,61.0,45.9,30.6,22.5,14.4,52,24,15,0.00,40.00,5,1,6,0.00
2013-4-25,64.8,52.1,43.9,37.4,31.5,26.4,71,48,26,0.00,40.00,4,0,5,0.00
2013-4-26,71.6,56.2,44.8,42.8,34.3,27.8,75,48,22,0.00,40.00,3,0,4,0.00
2013-4-27,76.5,60.4,45.3,39.2,33.2,24.3,71,39,16,0.00,40.00,3,0,4,0.00
2013-4-28,82.0,68.6,54.1,35.6,30.8,25.1,40,25,17,0.00,40.00,4,0,6,0.00
2013-4-29,84.7,74.3,66.6,33.8,27.8,23.0,23,18,14,0.00,40.00,4,1,6,0.00
2013-4-30,79.2,70.1,62.8,28.6,23.4,18.5,23,17,13,0.00,40.00,8,2,11,0.00
2013-5-1,78.3,70.7,61.0,26.8,20.8,14.5,16,15,13,0.00,40.00,8,3,13,0.00
2013-5-2,84.2,73.1,66.4,29.7,22.0,17.3,16,15,13,0.00,40.00,5,1,8,0.00
2013-5-3,84.6,73.0,64.8,29.7,22.2,16.0,16,15,13,0.00,40.00,5,1,6,0.00
2013-5-4,82.6,71.5,52.7,37.4,25.8,18.5,51,20,14,0.00,40.00,7,2,11,0.00
2013-5-5,60.6,54.8,49.5,35.6,31.7,26.9,59,42,28,0.00,40.00,5,0,8,0.00
2013-5-6,62.6,55.0,50.4,48.2,36.6,30.1,74,51,30,0.00,40.00,5,0,6,0.08
2013-5-7,66.7,57.5,52.3,44.6,35.0,23.9,70,46,26,0.00,40.00,5,1,8,0.00
2013-5-8,67.5,56.6,49.3,41.0,34.7,28.4,66,45,30,0.00,40.00,4,0,6,0.00
2013-5-9,72.1,57.7,47.3,42.8,36.2,31.3,76,48,24,0.00,40.00,4,0,5,0.00
2013-5-10,76.6,60.5,46.9,48.2,37.8,33.8,82,47,22,0.00,40.00,3,0,4,0.00
2013-5-11,84.6,69.7,54.5,41.0,33.8,21.9,53,28,17,0.00,40.00,5,0,8,0.00
2013-5-12,82.8,67.4,54.7,39.2,31.8,25.8,46,28,14,0.00,40.00,4,0,6,0.00
2013-5-13,81.5,66.5,52.5,37.4,31.2,24.3,41,28,17,0.00,40.00,3,0,6,0.00
2013-5-14,79.7,64.9,54.7,35.6,31.1,25.5,41,29,17,0.00,40.00,5,0,8,0.00
2013-5-15,73.6,60.5,49.3,30.8,26.6,23.1,41,28,18,0.00,40.00,6,1,8,0.00
2013-5-16,67.5,59.7,50.2,33.8,27.3,23.2,43,29,24,29.56,29.56,8,2,9,0.00
2013-5-17,68.2,56.1,45.7,31.1,25.5,18.5,50,32,18,29.56,29.56,4,0,6,0.00
2013-5-18,75.7,60.5,46.9,30.9,26.8,22.6,44,29,18,29.56,29.53,6,1,8,0.00
2013-5-19,80.4,68.7,57.6,28.5,23.2,18.3,26,18,14,29.59,29.56,5,1,6,0.00
2013-5-20,84.0,73.2,62.8,29.7,23.6,17.8,18,16,14,29.59,29.56,6,2,9,0.00
2013-5-21,69.3,60.7,49.8,24.8,20.8,13.5,28,22,17,29.56,29.56,8,2,11,0.00
2013-5-22,65.3,53.4,42.1,20.7,14.2,7.0,29,21,15,29.56,29.53,6,1,8,0.00
2013-5-23,67.8,54.7,41.9,26.7,21.3,16.0,42,28,18,29.56,29.53,6,1,8,0.00
2013-5-24,69.3,58.7,48.2,26.7,21.5,15.5,34,24,17,29.56,29.56,6,1,8,0.00
2013-5-25,70.3,57.6,45.3,29.7,25.2,20.9,44,30,19,29.56,29.56,8,1,12,0.00
2013-5-26,69.1,59.3,51.6,33.8,28.1,23.1,48,31,23,29.56,29.56,8,3,10,0.00
2013-5-27,59.0,55.3,50.5,46.4,33.8,20.2,79,46,25,29.56,29.56,8,2,11,0.04
2013-5-28,70.3,60.0,52.5,53.6,40.5,31.5,90,54,25,29.59,29.56,4,0,6,0.00
2013-5-29,73.4,62.7,55.2,37.4,30.1,21.1,47,30,20,29.59,29.56,8,2,8,0.00
2013-5-30,78.3,63.5,51.3,31.2,25.8,18.3,38,25,15,29.59,29.56,5,1,8,0.00
2013-5-31,87.1,73.4,60.8,30.3,25.7,21.0,24,17,13,29.59,29.56,4,1,6,0.00
2013-6-1,91.2,77.2,64.8,32.1,27.3,20.5,23,16,12,29.59,29.56,4,1,6,0.00
2013-6-2,86.7,72.5,59.4,35.6,28.4,20.1,27,20,13,29.59,29.56,5,0,8,0.00
2013-6-6,77.9,66.6,58.5,37.4,35.0,31.7,44,32,21,29.59,29.56,0,0,0,0.00
2013-6-7,58.5,55.1,53.1,37.4,36.9,35.6,54,49,43,29.56,29.56,0,0,0,0.00
2013-6-10,58.8,56.5,52.3,39.2,37.0,33.8,60,48,39,29.56,29.56,4,0,6,0.00
2013-6-11,58.5,52.6,51.1,44.6,41.1,35.6,70,65,45,29.56,29.56,3,0,4,0.00
2013-6-12,80.1,70.6,56.8,28.2,23.3,17.0,25,17,15,29.59,29.56,6,2,8,0.00
2013-6-13,80.1,66.0,51.6,28.1,23.0,17.5,28,20,15,29.59,29.56,5,1,6,0.00
2013-6-14,84.7,72.3,63.1,29.7,23.5,15.9,20,16,13,29.59,29.56,7,1,13,0.00
2013-6-15,80.1,63.6,52.3,35.6,30.8,18.8,48,30,17,29.59,29.56,4,0,6,0.00
2013-6-16,84.0,68.2,54.5,33.8,27.7,20.1,39,24,14,29.59,29.56,6,1,8,0.00
2013-6-17,79.2,64.7,54.7,35.6,29.0,22.3,40,27,18,29.59,29.56,6,1,8,0.00
2013-6-18,71.8,59.7,51.6,35.6,28.7,21.8,51,32,19,29.59,29.56,7,3,12,0.00
2013-6-19,73.8,61.0,48.7,28.6,25.5,21.3,39,26,16,29.56,29.56,8,2,10,0.00
2013-6-20,78.6,65.5,54.1,31.1,25.4,18.5,36,23,15,29.59,29.56,5,1,6,0.00
2013-6-21,72.5,62.7,57.2,28.7,24.7,21.0,25,23,19,29.56,29.56,4,0,5,0.00
2013-6-22,88.0,74.3,61.9,31.0,26.0,21.3,25,17,13,29.59,29.56,5,1,7,0.04
2013-6-23,67.5,62.5,56.1,44.6,35.6,25.3,61,37,23,29.59,29.56,7,1,10,0.00
2013-6-24,59.7,56.6,54.0,51.8,45.5,37.4,89,67,45,29.56,29.56,6,0,10,0.16
2013-6-25,63.5,59.6,55.6,62.6,57.8,51.8,97,95,89,29.56,29.56,5,0,9,1.26
2013-6-26,73.0,65.8,60.4,64.4,51.2,37.4,95,65,30,29.59,29.56,4,0,4,0.04
2013-6-27,87.3,72.1,59.7,51.8,41.2,35.6,65,36,18,29.59,29.56,4,0,5,0.00
2013-6-28,94.5,82.4,70.7,41.0,35.1,26.2,32,19,11,29.62,29.59,6,1,9,0.00
2013-6-29,98.8,84.2,71.1,39.2,29.8,23.0,21,14,10,29.62,29.59,6,1,6,0.00
2013-6-30,96.3,80.7,70.3,41.0,30.8,23.0,23,17,11,29.62,29.59,3,0,4,0.00
2013-7-1,97.5,80.8,63.7,39.2,35.0,29.3,35,20,11,29.62,29.59,4,0,4,0.00
2013-7-2,90.9,78.7,67.8,41.0,36.0,31.0,33,22,15,29.62,29.59,4,0,6,0.00
2013-7-3,94.5,76.5,63.1,42.8,38.2,33.8,41,27,14,29.62,29.59,3,0,4,0.00
2013-7-4,98.8,83.7,72.0,42.8,34.4,23.6,31,18,10,29.62,29.59,8,1,11,0.00
2013-7-5,77.9,67.1,54.9,35.6,28.5,18.5,46,24,16,29.59,29.56,4,0,6,0.00
2013-7-6,77.5,62.1,52.3,42.8,36.5,30.8,68,41,21,29.59,29.53,4,0,7,0.00
2013-7-7,84.9,64.9,50.9,46.4,33.9,24.3,70,36,13,29.59,29.56,7,0,9,0.00
2013-7-8,84.6,66.4,50.0,37.4,31.0,24.8,55,29,13,29.59,29.56,7,0,8,0.00
2013-7-9,92.1,74.8,58.1,35.6,29.8,22.4,36,21,12,29.59,29.56,6,0,8,0.00
2013-7-10,87.1,71.2,59.2,37.4,27.3,14.9,36,20,13,29.59,29.56,4,0,6,0.00
2013-7-11,79.0,61.3,46.9,41.0,32.3,25.8,68,36,20,29.59,29.56,3,0,4,0.00
2013-7-12,79.7,62.1,50.4,44.6,36.4,30.0,73,43,20,29.59,29.56,3,0,4,0.00
2013-7-13,85.3,67.5,53.8,39.2,33.4,20.1,53,31,13,29.59,29.56,4,0,6,0.00
2013-7-14,82.6,67.2,54.9,37.4,32.5,25.7,45,29,16,29.59,29.56,2,0,3,0.00
2013-7-15,76.5,59.6,48.6,42.8,33.4,27.1,70,40,21,29.59,29.56,4,0,4,0.00
2013-7-16,69.1,57.1,49.8,39.2,35.4,29.6,68,47,24,29.56,29.56,4,0,5,0.00
2013-7-17,76.1,57.2,50.9,44.6,41.0,33.8,73,57,23,29.56,29.56,3,0,3,0.00
2013-7-27,80.4,72.6,57.9,37.4,35.3,33.8,44,26,20,29.59,29.56,2,0,4,0.16
2013-7-28,60.6,55.8,51.4,41.0,36.7,35.6,66,49,39,29.56,29.56,0,0,0,0.00
2013-7-29,59.9,52.4,49.6,44.6,40.4,33.8,74,64,39,29.56,29.56,2,0,3,0.00
2013-7-30,55.4,51.4,49.8,41.0,39.0,33.8,73,63,49,29.56,29.56,0,0,0,0.00
2013-7-31,58.8,52.6,49.8,42.8,38.2,33.8,72,59,39,29.56,29.56,0,0,0,0.00
2013-8-1,69.8,57.5,52.2,33.8,30.5,23.8,46,36,23,29.56,29.56,3,0,4,0.00
2013-8-2,63.1,58.5,56.1,33.8,29.2,25.9,36,33,28,29.56,29.53,0,0,0,0.00
2013-8-3,58.8,53.2,51.3,46.4,40.7,31.8,77,63,38,29.56,29.56,0,0,0,0.00
2013-8-4,58.1,52.6,50.4,46.4,39.4,33.1,75,62,39,29.56,29.53,0,0,0,0.00
2013-8-5,67.6,52.8,48.6,42.8,37.3,30.5,73,57,30,29.56,29.56,0,0,3,0.00
2013-8-6,74.8,58.2,47.8,42.8,35.4,29.4,75,46,21,29.56,29.56,3,0,4,0.00
2013-8-7,68.4,57.8,52.2,42.8,38.2,33.8,69,50,29,29.56,29.56,5,0,6,0.00
2013-8-8,74.7,60.7,52.2,46.4,37.6,30.6,74,46,22,29.56,29.56,5,0,8,0.00
2013-8-9,75.9,59.6,48.7,44.6,35.4,29.4,73,44,21,29.56,29.56,4,0,6,0.00
2013-8-10,77.7,61.9,51.6,46.4,37.8,28.3,75,45,18,29.56,29.56,3,0,4,0.00
2013-8-11,80.4,64.4,52.3,44.6,36.1,25.5,68,39,15,29.59,29.56,4,0,6,0.00
2013-8-12,81.1,64.3,51.1,41.0,33.4,21.0,61,34,17,29.59,29.56,4,0,6,0.00
2013-8-13,87.3,72.1,55.2,33.8,29.5,23.0,42,22,13,29.59,29.56,5,0,6,0.00
2013-8-14,72.7,62.7,58.5,33.8,29.3,24.6,36,28,23,29.59,29.56,0,0,0,0.00
2013-8-15,70.7,63.6,60.1,42.8,38.7,33.8,50,40,31,29.59,29.56,0,0,0,0.00
2013-8-16,86.7,72.6,63.3,44.6,36.4,23.0,47,29,14,29.59,29.56,7,0,9,0.00
2013-8-17,79.7,69.4,59.7,39.2,35.2,26.7,39,29,21,29.59,29.56,4,0,5,0.00
2013-8-18,93.6,76.7,58.6,46.4,37.0,30.3,59,27,14,29.59,29.56,4,0,5,0.00
2013-8-19,90.7,79.2,67.6,41.0,36.0,30.3,32,21,15,29.59,29.59,4,0,6,0.00
2013-8-20,83.1,67.7,59.0,41.0,36.8,27.8,47,33,20,29.59,29.56,3,0,4,0.00
2013-8-21,79.0,64.4,54.7,44.6,34.4,22.4,67,35,20,29.59,29.56,5,0,6,0.00
2013-8-22,75.4,62.1,53.6,37.4,32.0,22.7,51,33,21,29.56,29.56,4,0,4,0.00
2013-8-23,79.0,63.0,51.6,44.6,36.9,30.3,72,42,20,29.56,29.56,4,0,5,0.00
2013-8-24,78.3,65.2,55.8,41.0,34.2,29.6,47,33,20,29.56,29.56,6,1,9,0.00
2013-8-25,75.9,65.3,57.2,48.2,38.4,29.0,65,39,22,29.56,29.56,6,0,10,0.00
2013-8-26,78.6,64.9,55.4,48.2,38.4,29.3,72,43,20,29.56,29.56,4,0,5,0.00
2013-8-27,83.1,68.8,57.7,35.6,31.6,25.7,38,26,16,29.59,29.56,5,0,8,0.00
2013-8-28,82.2,68.2,58.1,39.2,34.7,27.8,44,30,20,29.59,29.56,4,0,5,0.00
2013-8-29,81.3,68.0,56.8,51.8,40.2,30.9,74,40,19,29.59,29.56,5,1,6,0.00
2013-8-30,88.3,73.7,61.7,41.0,35.4,28.0,46,26,15,29.59,29.56,6,0,8,0.00
2013-8-31,85.8,71.2,61.0,39.2,30.4,20.1,36,23,13,29.59,29.56,6,0,6,0.00
2013-9-1,80.1,67.8,58.5,37.4,33.4,23.5,41,29,17,29.59,29.56,6,0,8,0.00
2013-9-2,78.1,68.1,59.9,41.0,35.7,31.4,45,31,21,29.59,29.56,5,1,7,0.00
2013-9-3,77.0,65.3,56.7,39.2,32.4,27.7,46,30,18,29.59,29.56,5,0,6,0.00
2013-9-4,78.1,65.6,55.8,41.0,33.8,25.6,55,33,18,29.59,29.56,5,0,6,0.00
2013-9-5,78.1,65.5,55.4,39.2,32.0,25.2,53,31,15,29.59,29.56,5,1,7,0.00
2013-9-6,85.8,72.9,61.0,30.6,27.4,24.0,27,19,13,29.59,29.56,6,1,8,0.20
2013-9-7,89.6,78.1,70.3,32.1,26.3,23.0,17,15,12,29.59,29.56,7,1,10,0.00
2013-9-8,73.0,70.5,68.0,24.3,23.0,21.6,17,17,16,29.59,29.59,0,0,0,0.00
2013-9-9,92.7,85.5,70.5,33.8,29.5,23.0,17,13,12,29.59,29.59,6,2,9,0.12
2013-9-10,76.6,64.6,57.9,46.4,35.1,22.4,61,35,17,29.59,29.56,3,0,5,0.00
2013-9-11,71.1,61.9,57.0,48.2,41.7,35.6,67,49,28,29.59,29.56,4,0,4,0.00
2013-9-12,79.2,65.2,56.7,51.8,42.1,33.8,77,48,21,29.59,29.56,4,0,6,0.00
2013-9-13,81.3,65.6,54.3,46.4,38.0,30.5,67,40,17,29.59,29.56,3,0,4,0.00
2013-9-14,76.8,63.6,53.4,41.0,36.7,33.8,60,39,22,29.59,29.56,2,0,3,0.00
2013-9-15,78.3,61.4,49.3,48.2,37.3,28.5,77,45,21,29.59,29.56,5,0,6,0.00
2013-9-16,81.0,65.7,55.9,46.4,36.4,28.8,65,37,20,29.59,29.56,5,0,8,0.00
2013-9-17,73.2,63.6,54.9,35.6,30.6,26.9,48,30,19,29.59,29.56,8,2,9,0.00
2013-9-18,79.0,68.3,62.4,27.4,25.0,21.6,25,20,15,29.59,29.56,4,1,6,0.00
2013-9-19,84.0,71.2,62.6,29.7,22.9,16.6,21,16,14,29.59,29.56,7,0,9,0.00
2013-9-20,70.7,62.4,56.1,48.2,28.6,12.2,69,29,15,29.56,29.56,6,1,11,0.00
2013-9-21,60.4,57.4,53.4,59.0,47.5,30.5,94,72,39,29.56,29.56,5,1,8,0.75
2013-9-22,67.5,58.3,51.3,37.4,32.2,27.3,60,39,23,29.56,29.56,4,0,8,0.00
2013-9-23,75.2,64.2,56.1,37.4,32.9,30.0,42,32,21,29.56,29.56,4,0,6,0.00
2013-9-24,71.4,61.0,54.5,35.6,30.1,25.4,43,32,19,29.56,29.53,8,2,11,0.00
2013-9-25,65.8,57.5,52.2,27.8,22.8,19.7,37,26,18,29.56,29.56,8,4,11,0.00
2013-9-26,68.9,60.0,53.1,22.3,18.0,14.3,26,20,15,29.56,29.56,7,3,10,0.00
2013-9-27,72.7,62.9,57.6,24.3,17.2,13.1,19,17,15,29.56,29.56,6,2,8,0.00
2013-9-28,75.2,64.3,57.0,35.6,21.8,15.8,43,20,15,29.56,29.56,7,1,9,0.00
2013-9-29,67.1,60.3,55.6,57.2,43.1,35.6,86,55,33,29.56,29.56,5,1,8,0.08
2013-9-30,64.8,61.0,54.5,60.8,51.4,33.8,92,73,40,29.56,29.56,5,0,6,0.16
2013-10-1,68.9,57.5,48.4,37.4,30.1,26.0,54,37,23,29.56,29.56,4,0,6,0.00
2013-10-2,70.0,62.2,56.5,29.4,23.9,13.4,31,23,16,29.56,29.53,6,1,9,0.00
2013-10-3,67.1,60.3,53.6,17.8,15.4,11.0,20,17,15,29.56,29.56,8,4,12,0.00
2013-10-4,72.3,65.1,58.5,20.0,17.0,13.8,17,16,14,29.56,29.56,9,4,13,0.00
2013-10-5,81.5,67.8,62.6,28.4,18.7,15.8,16,15,13,29.56,29.56,5,1,8,0.00
2013-10-6,82.8,68.9,62.6,28.7,19.8,15.8,16,15,14,29.56,29.56,4,0,6,0.00
2013-10-7,82.2,69.3,63.1,28.4,19.7,15.9,16,15,14,29.56,29.56,5,0,6,0.00
2013-10-8,80.8,63.9,55.6,28.5,17.4,14.3,25,17,15,29.56,29.56,5,0,6,0.00
2013-10-9,74.1,57.8,46.6,25.1,20.1,17.4,38,24,16,29.56,29.56,6,2,8,0.00
2013-10-10,74.5,60.0,54.3,27.2,19.5,14.0,28,21,16,29.56,29.56,6,1,9,0.00
2013-10-11,74.8,56.0,47.5,31.6,23.8,15.6,46,29,20,29.56,29.53,4,0,5,0.00
2013-10-12,74.3,58.6,51.8,31.1,23.3,20.1,33,26,20,29.56,29.53,6,1,8,0.00
2013-10-13,73.6,60.2,54.9,24.6,19.0,15.3,25,20,15,29.56,29.53,7,2,8,0.00
2013-10-14,73.0,63.7,59.7,24.3,19.5,15.5,19,18,15,29.56,29.56,4,1,6,0.00
2013-10-15,77.4,66.6,61.2,26.1,17.9,14.6,17,15,14,29.56,29.56,5,2,8,0.00
2013-10-16,82.8,67.1,61.7,28.7,18.6,15.1,17,15,14,29.56,29.56,5,0,7,0.00
2013-10-17,82.8,66.7,60.8,28.4,18.3,14.3,17,15,14,29.56,29.56,4,0,4,0.00
2013-10-18,89.8,67.5,62.2,31.5,19.6,15.5,18,16,13,29.56,29.56,3,0,4,0.00
2013-10-19,91.8,68.2,61.9,31.8,19.8,15.2,17,16,12,29.56,29.56,4,0,5,0.00
2013-10-20,91.4,68.0,61.5,31.6,19.4,14.9,17,16,12,29.56,29.56,3,0,4,0.00
2013-10-21,87.3,65.5,56.7,30.3,21.9,14.3,26,19,13,29.56,29.56,4,0,5,0.00
2013-10-22,90.5,66.4,58.1,30.7,22.7,19.3,26,19,12,29.56,29.56,3,0,4,0.00
2013-10-23,84.2,64.7,52.5,29.4,20.8,15.3,31,19,14,29.56,29.56,0,0,3,0.00
2013-10-24,65.8,52.0,42.3,35.6,28.3,22.9,56,40,26,29.56,29.53,3,0,4,0.00
2013-10-25,77.0,58.8,47.5,33.8,25.1,18.8,47,28,20,29.56,29.53,3,0,3,0.00
2013-10-26,80.4,65.5,58.3,28.4,21.6,17.0,25,19,15,29.56,29.56,3,0,3,0.00
2013-10-27,66.6,54.3,48.6,29.2,21.9,13.5,41,29,18,29.56,29.56,10,1,15,0.00
2013-10-28,64.6,50.1,44.2,26.8,22.1,16.6,47,34,21,29.56,29.56,5,0,8,0.00
2013-10-29,57.6,50.3,45.0,33.8,27.7,23.3,59,42,28,29.56,29.53,6,0,8,0.00
2013-10-30,59.2,53.0,48.7,28.8,25.5,22.0,41,34,27,29.53,29.53,4,0,5,0.00
2013-10-31,67.5,58.0,51.6,28.8,24.1,22.0,35,27,20,29.56,29.53,4,0,4,0.00
2013-11-1,72.5,62.0,57.6,27.4,21.3,17.4,25,21,17,29.56,29.56,4,0,6,0.00
2013-11-2,69.3,61.0,56.1,26.5,22.3,17.4,25,22,19,29.56,29.56,4,0,6,0.00
2013-11-3,61.0,54.7,48.2,21.1,12.4,7.9,25,18,16,29.56,29.53,7,2,9,0.00
2013-11-4,63.5,56.0,49.5,16.1,12.4,8.9,19,18,16,29.53,29.53,7,4,11,0.00
2013-11-5,68.0,59.9,55.6,18.5,14.3,11.3,19,17,15,29.56,29.53,6,1,8,0.00
2013-11-6,68.9,60.9,56.8,22.3,17.3,12.5,20,18,16,29.56,29.56,4,0,5,0.00
2013-11-7,72.0,61.0,55.2,23.9,17.8,12.7,25,19,16,29.56,29.56,4,0,6,0.00
2013-11-8,72.7,59.6,54.9,27.9,22.0,14.9,28,23,19,29.56,29.56,4,0,5,0.00
2013-11-9,70.2,59.9,55.2,26.8,21.6,14.9,25,23,17,29.56,29.53,5,0,7,0.00
2013-11-10,65.7,55.9,50.0,28.4,22.6,18.7,38,27,24,29.56,29.53,4,0,8,0.00
2013-11-11,65.8,56.9,46.4,25.8,21.9,18.0,44,26,20,29.56,29.53,4,0,5,0.00
2013-11-12,65.7,60.4,56.1,26.9,21.9,19.2,25,23,20,29.56,29.56,4,0,4,0.00
2013-11-13,79.0,64.3,58.6,30.1,23.6,17.1,29,21,15,29.56,29.53,3,0,4,0.00
2013-11-14,63.9,58.7,53.4,31.9,24.4,14.7,37,27,19,29.56,29.56,8,1,10,0.00
2013-11-15,65.3,54.0,47.8,20.7,14.8,11.0,27,21,17,29.56,29.53,5,1,6,0.00
2013-11-16,59.2,50.8,42.1,25.5,21.1,14.9,39,31,24,29.53,29.53,5,1,7,0.00
2013-11-17,59.7,50.1,45.1,33.8,27.4,24.6,56,42,30,29.53,29.53,4,0,6,0.00
2013-11-18,54.5,49.1,45.3,31.7,28.0,21.6,57,44,29,29.53,29.53,4,0,5,0.00
2013-11-19,53.4,50.6,46.6,51.8,45.4,28.9,95,83,48,29.53,29.53,4,0,6,0.91
2013-11-20,55.6,52.9,50.2,53.6,50.6,44.6,95,92,83,29.53,29.53,4,0,8,0.59
2013-11-21,54.0,50.0,45.5,46.4,18.0,9.7,86,33,18,29.53,29.53,9,4,18,0.04
2013-11-22,64.2,57.6,50.4,17.0,13.4,9.5,19,17,16,29.53,29.53,9,4,14,0.00
2013-11-23,72.3,55.1,48.9,20.2,11.8,8.3,19,18,14,29.53,29.53,7,2,10,0.00
2013-11-24,68.4,50.9,46.9,19.4,13.2,6.9,28,22,15,29.56,29.53,3,0,5,0.00
2013-11-25,67.8,50.9,46.4,25.5,19.0,15.3,34,28,18,29.56,29.56,4,0,5,0.00
2013-11-26,57.6,52.2,48.4,19.8,16.5,13.3,30,24,19,29.56,29.56,4,0,5,0.00
2013-11-27,67.3,53.4,47.8,23.3,18.3,14.6,27,25,17,29.56,29.56,3,0,5,0.00
2013-11-28,65.1,56.7,52.2,21.0,17.8,13.7,26,22,18,29.56,29.53,4,0,6,0.00
2013-11-29,66.4,57.0,54.0,22.0,18.5,14.3,25,22,17,29.56,29.53,3,0,4,0.00
2013-11-30,65.5,56.8,53.6,23.2,18.8,16.7,25,23,18,29.56,29.53,3,0,4,0.00
2013-12-1,69.3,59.9,56.1,24.1,19.4,15.3,25,21,17,29.56,29.56,3,0,4,0.00
2013-12-2,60.3,55.2,51.3,39.2,23.8,17.2,56,30,22,29.56,29.53,8,2,9,0.00
2013-12-3,52.3,45.3,41.7,35.6,14.2,4.2,55,29,20,29.56,29.53,8,2,10,0.00
2013-12-4,42.8,38.7,34.5,5.5,2.6,-0.4,22,21,21,29.53,29.53,6,1,8,0.00
2013-12-5,43.2,37.2,33.4,8.7,3.4,-3.3,31,24,20,29.53,29.50,5,1,6,0.00
2013-12-6,43.2,38.0,32.7,39.2,19.6,6.3,89,51,28,29.53,29.50,6,0,8,0.51
2013-12-7,40.5,34.9,30.9,37.4,11.8,4.7,88,40,26,29.53,29.50,8,3,11,0.00
2013-12-8,37.9,33.5,29.7,11.0,3.5,-0.8,42,28,22,29.53,29.50,5,1,7,0.00
2013-12-9,45.1,39.5,35.8,6.5,2.8,0.7,22,21,20,29.53,29.50,7,2,8,0.00
2013-12-10,47.5,41.9,37.4,8.2,4.9,1.1,23,21,19,29.53,29.50,5,1,6,0.00
2013-12-11,52.2,47.5,43.3,12.2,7.9,5.0,23,20,18,29.53,29.53,4,1,6,0.00
2013-12-12,55.8,48.3,45.3,13.0,9.3,6.4,22,20,17,29.53,29.53,3,0,4,0.00
2013-12-13,56.8,50.1,44.1,16.2,12.0,8.1,25,21,20,29.53,29.53,4,0,6,0.00
2013-12-14,57.7,53.0,48.7,16.5,14.0,11.6,26,21,17,29.53,29.53,4,1,6,0.00
2013-12-15,60.4,54.9,49.6,16.7,13.1,9.1,21,19,17,29.53,29.53,4,1,6,0.00
2013-12-16,68.5,61.8,57.9,19.1,15.5,13.4,17,16,15,29.53,29.53,5,2,8,0.00
2013-12-17,64.0,60.2,56.8,17.0,14.8,12.5,17,17,16,29.56,29.53,3,0,4,0.00
2013-12-18,61.9,54.7,46.9,24.9,16.8,11.3,39,23,16,29.56,29.53,7,0,9,0.00
2013-12-19,52.5,48.3,45.1,15.7,10.2,6.4,28,21,18,29.53,29.53,9,4,14,0.00
2013-12-20,59.5,52.1,45.0,14.7,10.2,6.3,21,18,17,29.53,29.53,7,2,10,0.00
2013-12-21,58.8,54.0,47.3,24.0,20.2,12.1,34,27,19,29.53,29.53,4,0,5,0.00
2013-12-22,63.9,58.8,54.1,21.6,17.7,15.0,25,20,18,29.56,29.53,7,2,8,0.00
2013-12-23,62.2,56.3,53.6,21.8,18.8,15.0,26,23,19,29.56,29.53,3,0,4,0.00
2013-12-24,65.8,59.0,52.9,21.0,16.7,13.7,23,19,16,29.56,29.56,4,1,6,0.00
2013-12-25,62.8,59.0,54.7,15.8,14.1,11.3,18,17,16,29.56,29.56,5,1,6,0.00
2013-12-26,66.0,59.2,56.7,17.1,14.1,12.2,17,17,15,29.56,29.56,4,1,5,0.00
2013-12-27,61.9,56.1,50.9,15.6,12.5,9.7,19,17,16,29.56,29.56,2,0,3,0.00
2013-12-28,65.5,57.6,49.6,17.1,13.3,9.1,19,17,15,29.56,29.56,7,2,12,0.00
2013-12-29,62.8,57.9,53.8,15.9,13.2,11.3,18,17,16,29.56,29.53,7,2,8,0.00
2013-12-30,61.0,53.8,50.0,15.6,11.3,9.4,19,18,16,29.56,29.56,4,0,6,0.00
2013-12-31,57.6,53.9,49.6,13.1,11.2,9.1,19,18,17,29.56,29.53,3,0,4,0.00
2014-1-1,67.5,57.4,52.9,18.2,12.9,10.6,18,17,15,29.53,29.53,4,0,6,0.00
2014-1-2,63.9,58.2,54.5,16.5,13.4,11.3,18,17,16,29.53,29.53,4,0,4,0.00